Historyczne dane pomiarowe

Dodano dane terminowe – wersja testowa.

Dane z okresu 1951-2019

Wersja bazy: 1.34 [2019-03-16, lista zmian], aktualizacja planowana na 2019-04-15

Dane meteo z obszaru Polski uzyskane na podstawie danych udostępnionych przez Instytut Meteorologii i Gospodarki Wodnej – Państwowy Instytut Badawczy.

 

Wybierz Datę:    

       

TemperaturaWilgotnośćWiatrCiśnienieOpadyŚniegCzas trwania zjawisk
 Stacja t tx tn tng RH VA  wxwx mslp ppp RRR   cm mm wxwxwxwxwxwxwx
1961-08-14 14.5 19.1 8.5- 73.8- 3.0 2.3---- 0.0------------
1961-08-13 14.5 18.2 13.2- 81.8- 6.7 2.7---- 0.4------------
1961-08-12 17.8 20.9 15.3- 87.5- 7.3 1.7---- 1.5------------
1961-08-11 19.4 24.9 16.5- 91.0- 5.7 3.0---- 6.5------------
1961-08-10 20.1 25.8 14.4- 73.3- 5.0 2.3---- 42.6------------
1961-08-09 20.7 27.1 14.2- 78.0- 4.3 1.0---- 0.0------------
1961-08-08 16.7 23.2 12.9- 76.0- 3.3 2.7---- 0.0------------
1961-08-07 20.6 27.4 17.7- 84.8- 5.0 2.7---- 0.0------------
1961-08-06 22.4 29.5 13.3- 69.0- 2.0 2.7---- 0.0------------
1961-08-05 17.3 22.0 13.6- 72.0- 3.0 4.3---- 0.0------------
1961-08-04 15.8 20.0 11.5- 77.3- 4.0 2.3---- 0.4------------
1961-08-03 17.2 22.0 13.8- 78.5- 6.0 2.3---- 0.0------------
1961-08-02 17.8 24.5 9.7- 72.0- 1.7 1.7---- 0.0------------
1961-08-01 13.6 14.8 12.2- 88.8- 7.3 5.3---- 0.7------------
1961-07-31 15.2 18.4 13.3- 80.5- 6.7 6.0---- 1.2------------
1961-07-30 13.4 15.4 12.6- 94.8- 8.0 2.3---- 32.7------------
1961-07-29 14.6 17.2 13.0- 91.3- 7.7 1.3---- 4.1------------
1961-07-28 16.3 20.9 15.5- 88.3- 8.0 1.7---- 23.0------------
1961-07-27 18.0 24.9 14.5- 74.8- 8.0 3.3---- 0.0------------
1961-07-26 15.5 18.2 12.1- 81.0- 8.0 3.0---- 0.0------------
1961-07-25 13.9 17.2 9.5- 83.0- 7.3 3.0---- 0.0------------
1961-07-24 14.4 18.4 10.9- 81.5- 6.3 2.7---- 0.0------------
1961-07-23 13.8 17.1 12.2- 89.3- 5.7 2.0---- 0.0------------
1961-07-22 13.9 17.2 12.7- 91.8- 6.7 3.7---- 4.4------------
1961-07-21 14.4 21.3 10.3- 93.3- 2.7 3.0---- 1.6------------
1961-07-20 16.7 23.3 9.0- 71.0- 2.0 2.0---- 0.0------------
1961-07-19 15.5 22.1 9.5- 77.3- 4.3 1.7---- 0.0------------
1961-07-18 13.9 17.4 11.1- 81.3- 6.7 3.0---- 0.0------------
1961-07-17 16.6 23.5 9.9- 73.0- 7.0 2.7---- 0.0------------
1961-07-16 15.8 19.6 9.3- 94.0- 7.0 2.7---- 2.4------------
1961-07-15 16.8 22.0 10.7- 75.3- 4.0 1.7---- 0.0------------
1961-07-14 15.2 22.9 12.7- 78.5- 5.7 4.0---- 0.0------------
1961-07-13 21.7 27.5 11.7- 69.3- 4.0 2.7---- 0.0------------
1961-07-12 15.3 21.2 11.7- 90.0- 5.3 1.7---- 1.0------------
1961-07-11 15.7 20.1 9.5- 65.0- 4.3 3.7---- 0.5------------
1961-07-10 13.6 17.4 10.5- 84.3- 7.3 3.0---- 0.8------------
1961-07-09 16.8 23.0 9.1- 63.8- 4.0 5.0---- 0.0------------
1961-07-08 14.9 19.2 10.6- 69.5- 3.7 2.7---- 0.0------------
1961-07-07 13.3 17.9 9.3- 75.3- 5.3 3.7---- 0.0------------
1961-07-06 12.5 17.1 8.5- 74.5- 5.7 5.0---- 0.0------------
1961-07-05 14.4 18.6 12.6- 67.5- 5.3 3.0---- 0.0------------
1961-07-04 19.2 24.7 16.1- 84.3- 3.7 1.7---- 8.1------------
1961-07-03 23.1 30.0 13.7- 56.0- 0.7 1.7---- 0.0------------
1961-07-02 21.1 27.7 11.4- 62.3- 0.0 2.3---- 0.0------------
1961-07-01 17.3 22.2 9.2- 81.5- 0.7 2.0---- 0.0------------
1961-06-30 17.5 24.5 10.2- 72.0- 1.0 3.7---- 0.0------------
1961-06-29 13.5 17.2 8.1- 82.0- 5.3 4.0---- 0.0------------
1961-06-28 14.7 24.1 13.2- 79.5- 7.0 4.0---- 8.5------------
1961-06-27 24.1 31.9 15.2- 70.3- 3.7 2.7---- 17.2------------
1961-06-26 22.1 27.7 16.4- 59.0- 1.3 3.3---- 0.0------------
1961-06-25 21.5 26.5 13.9- 55.5- 1.0 4.7---- 0.0------------
1961-06-24 16.8 21.6 11.8- 66.5- 2.7 4.3---- 0.0------------
1961-06-23 16.7 22.0 12.3- 78.3- 5.0 2.7---- 3.0------------
1961-06-22 14.4 20.1 8.5- 71.8- 3.3 2.7---- 3.5------------
1961-06-21 16.9 21.3 8.0- 59.3- 4.7 3.7---- 2.4------------
1961-06-20 13.6 18.9 9.1- 64.8- 1.7 3.7---- 0.0------------
1961-06-19 17.0 22.3 14.9- 67.5- 5.3 4.0---- 0.0------------
1961-06-18 17.9 23.7 14.4- 73.0- 6.7 2.3---- 0.0------------
1961-06-17 16.0 21.4 10.8- 75.5- 6.3 4.0---- 0.0------------
1961-06-16 12.2 15.3 11.2- 93.8- 8.0 2.3---- 4.0------------
315.6 ms

 

Źródłem pochodzenia danych jest Instytut Meteorologii i Gospodarki Wodnej – Państwowy Instytut Badawczy. Dane Instytutu Meteorologii i Gospodarki Wodnej – Państwowego Instytutu Badawczego zostały przetworzone.

Dane źródłowe można odnaleźć na stronie https://dane.imgw.pl